createdAt,value
2023-10-23T00:01:10.645Z,93613.50
2023-10-23T00:03:37.391Z,93612.25
2023-10-23T00:06:04.313Z,93599.91
2023-10-23T00:08:30.755Z,93612.81
2023-10-23T00:10:57.234Z,93593.75
2023-10-23T00:13:23.708Z,93609.59
2023-10-23T00:15:50.196Z,93616.75
2023-10-23T00:18:16.695Z,93605.47
2023-10-23T00:20:43.394Z,93609.41
2023-10-23T00:23:10.020Z,93609.41
2023-10-23T00:25:36.615Z,93609.06
2023-10-23T00:28:03.096Z,93629.63
2023-10-23T00:30:33.302Z,93632.16
2023-10-23T00:32:59.907Z,93605.47
2023-10-23T00:35:26.428Z,93628.38
2023-10-23T00:37:52.854Z,93603.03
2023-10-23T00:40:19.317Z,93608.69
2023-10-23T00:42:45.811Z,93631.22
2023-10-23T00:45:12.327Z,93619.06
2023-10-23T00:47:38.801Z,93630.34
2023-10-23T00:50:05.612Z,93614.25
2023-10-23T00:52:32.217Z,93631.50
2023-10-23T00:54:59.505Z,93624.25
2023-10-23T00:57:26.228Z,93639.66
2023-10-23T00:59:55.085Z,93641.63
2023-10-23T01:02:21.639Z,93636.06
2023-10-23T01:04:48.529Z,93634.66
2023-10-23T01:07:14.971Z,93629.03
2023-10-23T01:09:41.524Z,93611.75
2023-10-23T01:12:08.061Z,93611.03
2023-10-23T01:14:34.551Z,93608.38
2023-10-23T01:17:00.988Z,93622.88
2023-10-23T01:19:27.507Z,93639.59
2023-10-23T01:21:53.991Z,93592.72
2023-10-23T01:24:22.991Z,93621.06
2023-10-23T01:26:49.680Z,93604.75
2023-10-23T01:29:16.706Z,93604.06
2023-10-23T01:31:43.227Z,93615.88
2023-10-23T01:34:09.714Z,93615.00
2023-10-23T01:36:36.977Z,93611.94
2023-10-23T01:39:03.801Z,93625.38
2023-10-23T01:41:30.291Z,93615.25
2023-10-23T01:43:56.813Z,93606.56
2023-10-23T01:46:23.315Z,93616.94
2023-10-23T01:48:49.864Z,93611.56
2023-10-23T01:51:16.434Z,93602.47
2023-10-23T01:53:42.897Z,93586.81
2023-10-23T01:56:12.268Z,93586.53
2023-10-23T01:58:38.737Z,93589.50
2023-10-23T02:01:05.317Z,93597.78
2023-10-23T02:03:33.017Z,93571.75
2023-10-23T02:05:59.834Z,93574.25
2023-10-23T02:08:26.352Z,93579.69
2023-10-23T02:10:53.456Z,93588.66
2023-10-23T02:13:20.524Z,93577.44
2023-10-23T02:15:47.164Z,93582.47
2023-10-23T02:18:13.719Z,93599.66
2023-10-23T02:20:40.280Z,93594.28
2023-10-23T02:23:06.753Z,93576.63
2023-10-23T02:25:33.186Z,93579.41
2023-10-23T02:27:59.705Z,93606.72
2023-10-23T02:30:26.329Z,93610.31
2023-10-23T02:32:52.890Z,93578.97
2023-10-23T02:35:19.360Z,93595.91
2023-10-23T02:37:45.857Z,93591.50
2023-10-23T02:40:12.976Z,93555.69
2023-10-23T02:42:39.471Z,93577.19
2023-10-23T02:45:06.920Z,93576.53
2023-10-23T02:47:33.369Z,93588.38
2023-10-23T02:49:59.909Z,93602.19
2023-10-23T02:52:26.889Z,93592.53
2023-10-23T02:54:53.418Z,93595.25
2023-10-23T02:57:20.046Z,93582.88
2023-10-23T02:59:48.208Z,93602.28
2023-10-23T03:02:15.932Z,93593.28
2023-10-23T03:04:42.477Z,93604.16
2023-10-23T03:07:09.465Z,93598.47
2023-10-23T03:09:36.502Z,93594.00
2023-10-23T03:12:03.661Z,93592.66
2023-10-23T03:14:30.224Z,93595.75
2023-10-23T03:16:56.738Z,93597.38
2023-10-23T03:19:23.676Z,93600.94
2023-10-23T03:21:50.984Z,93602.56
2023-10-23T03:24:17.441Z,93602.81
2023-10-23T03:26:43.870Z,93598.09
2023-10-23T03:29:10.412Z,93591.66
2023-10-23T03:31:36.889Z,93595.88
2023-10-23T03:34:03.370Z,93588.44
2023-10-23T03:36:29.974Z,93579.78
2023-10-23T03:38:56.676Z,93600.44
2023-10-23T03:41:23.181Z,93602.94
2023-10-23T03:43:49.605Z,93610.63
2023-10-23T03:46:16.121Z,93597.38
2023-10-23T03:48:43.707Z,93572.06
2023-10-23T03:51:10.355Z,93584.88
2023-10-23T03:53:36.811Z,93572.47
2023-10-23T03:56:07.228Z,93596.13
2023-10-23T03:58:33.701Z,93580.16
2023-10-23T04:01:01.257Z,93566.03
2023-10-23T04:03:27.863Z,93594.13
2023-10-23T04:05:54.420Z,93586.28
2023-10-23T04:08:21.032Z,93593.03
2023-10-23T04:10:49.037Z,93595.56
2023-10-23T04:13:16.560Z,93577.06
2023-10-23T04:15:55.760Z,93581.78
2023-10-23T04:18:22.653Z,93590.19
2023-10-23T04:20:49.114Z,93572.25
2023-10-23T04:23:15.618Z,93589.47
2023-10-23T04:25:42.184Z,93580.16
2023-10-23T04:28:08.654Z,93585.25
2023-10-23T04:30:35.184Z,93578.19
2023-10-23T04:33:08.921Z,93560.09
2023-10-23T04:35:35.403Z,93562.94
2023-10-23T04:38:03.872Z,93552.38
2023-10-23T04:40:30.288Z,93542.94
2023-10-23T04:42:56.784Z,93545.41
2023-10-23T04:45:35.773Z,93536.25
2023-10-23T04:48:02.340Z,93551.47
2023-10-23T04:50:31.844Z,93551.47
2023-10-23T04:53:08.411Z,93555.19
2023-10-23T04:55:35.818Z,93564.69
2023-10-23T04:58:03.028Z,93539.69
2023-10-23T05:00:30.775Z,93542.53
2023-10-23T05:02:57.350Z,93543.06
2023-10-23T05:05:24.179Z,93537.97
2023-10-23T05:07:50.618Z,93529.66
2023-10-23T05:10:17.148Z,93552.06
2023-10-23T05:12:46.243Z,93530.31
2023-10-23T05:15:15.062Z,93522.31
2023-10-23T05:17:42.775Z,93541.59
2023-10-23T05:20:09.701Z,93540.38
2023-10-23T05:22:36.187Z,93525.47
2023-10-23T05:25:04.115Z,93524.72
2023-10-23T05:27:30.673Z,93517.56
2023-10-23T05:29:57.166Z,93508.78
2023-10-23T05:32:23.649Z,93528.44
2023-10-23T05:34:50.136Z,93523.53
2023-10-23T05:37:16.610Z,93527.09
2023-10-23T05:39:43.173Z,93535.97
2023-10-23T05:42:09.658Z,93543.47
2023-10-23T05:44:36.117Z,93559.75
2023-10-23T05:47:02.584Z,93550.09
2023-10-23T05:49:29.383Z,93523.22
2023-10-23T05:51:55.874Z,93534.50
2023-10-23T05:54:22.396Z,93534.59
2023-10-23T05:56:48.948Z,93536.59
2023-10-23T05:59:15.457Z,93545.00
2023-10-23T06:01:41.919Z,93532.50
2023-10-23T06:04:08.562Z,93558.94
2023-10-23T06:06:35.307Z,93548.09
2023-10-23T06:09:01.832Z,93557.41
2023-10-23T06:11:28.285Z,93550.56
2023-10-23T06:13:55.091Z,93572.25
2023-10-23T06:16:22.042Z,93552.50
2023-10-23T06:18:48.917Z,93566.53
2023-10-23T06:21:15.496Z,93553.31
2023-10-23T06:23:42.339Z,93540.06
2023-10-23T06:26:09.398Z,93559.75
2023-10-23T06:28:37.200Z,93564.97
2023-10-23T06:31:11.874Z,93574.22
2023-10-23T06:33:40.239Z,93558.13
2023-10-23T06:36:10.402Z,93565.06
2023-10-23T06:38:37.853Z,93555.88
2023-10-23T06:41:08.612Z,93550.28
2023-10-23T06:43:37.328Z,93549.56
2023-10-23T06:46:07.521Z,93541.97
2023-10-23T06:48:34.187Z,93543.22
2023-10-23T06:51:00.888Z,93539.41
2023-10-23T06:53:27.442Z,93539.72
2023-10-23T06:55:55.324Z,93527.34
2023-10-23T06:58:23.147Z,93543.03
2023-10-23T07:00:49.903Z,93521.78
2023-10-23T07:03:16.693Z,93512.63
2023-10-23T07:05:43.468Z,93517.50
2023-10-23T07:08:10.222Z,93501.88
2023-10-23T07:10:38.183Z,93523.19
2023-10-23T07:13:15.019Z,93518.81
2023-10-23T07:15:48.419Z,93515.97
2023-10-23T07:18:14.951Z,93518.81
2023-10-23T07:20:41.568Z,93528.06
2023-10-23T07:23:08.059Z,93525.25
2023-10-23T07:25:34.520Z,93520.91
2023-10-23T07:28:00.963Z,93526.53
2023-10-23T07:30:27.529Z,93516.88
2023-10-23T07:32:54.175Z,93516.47
2023-10-23T07:35:21.459Z,93511.72
2023-10-23T07:37:47.967Z,93518.59
2023-10-23T07:40:14.489Z,93504.13
2023-10-23T07:42:41.040Z,93520.59
2023-10-23T07:45:09.718Z,93514.56
2023-10-23T07:47:36.322Z,93516.56
2023-10-23T07:50:03.001Z,93483.66
2023-10-23T07:52:29.418Z,93502.06
2023-10-23T07:54:56.543Z,93488.41
2023-10-23T07:57:22.971Z,93490.59
2023-10-23T07:59:50.443Z,93483.16
2023-10-23T08:02:17.352Z,93466.09
2023-10-23T08:04:44.049Z,93477.94
2023-10-23T08:07:10.791Z,93489.09
2023-10-23T08:09:37.475Z,93471.06
2023-10-23T08:12:04.975Z,93461.41
2023-10-23T08:14:31.378Z,93477.44
2023-10-23T08:16:58.066Z,93474.69
2023-10-23T08:19:24.684Z,93480.69
2023-10-23T08:21:53.570Z,93493.81
2023-10-23T08:24:20.159Z,93484.97
2023-10-23T08:26:46.627Z,93476.41
2023-10-23T08:29:15.609Z,93487.69
2023-10-23T08:31:43.301Z,93472.41
2023-10-23T08:34:10.162Z,93472.06
2023-10-23T08:36:37.074Z,93479.44
2023-10-23T08:39:04.365Z,93474.91
2023-10-23T08:41:31.921Z,93464.81
2023-10-23T08:43:58.530Z,93459.09
2023-10-23T08:46:33.777Z,93466.97
2023-10-23T08:49:04.844Z,93473.75
2023-10-23T08:51:32.476Z,93484.53
2023-10-23T08:54:13.470Z,93469.44
2023-10-23T08:56:42.598Z,93471.75
2023-10-23T08:59:15.153Z,93456.28
2023-10-23T09:01:42.061Z,93445.50
2023-10-23T09:04:11.683Z,93457.66
2023-10-23T09:06:40.301Z,93443.84
2023-10-23T09:09:07.509Z,93456.19
2023-10-23T09:11:48.236Z,93471.31
2023-10-23T09:14:27.880Z,93467.81
2023-10-23T09:16:56.838Z,93472.75
2023-10-23T09:19:37.504Z,93465.06
2023-10-23T09:22:05.786Z,93468.94
2023-10-23T09:24:32.424Z,93468.41
2023-10-23T09:26:59.122Z,93448.69
2023-10-23T09:29:26.832Z,93434.09
2023-10-23T09:31:55.353Z,93434.03
2023-10-23T09:34:22.590Z,93423.78
2023-10-23T09:36:51.609Z,93418.88
2023-10-23T09:39:19.529Z,93430.41
2023-10-23T09:41:46.912Z,93413.16
2023-10-23T09:44:16.973Z,93433.72
2023-10-23T09:46:43.637Z,93423.69
2023-10-23T09:49:11.369Z,93422.31
2023-10-23T09:51:42.602Z,93431.34
2023-10-23T09:54:22.422Z,93414.81
2023-10-23T09:56:53.149Z,93438.75
2023-10-23T09:59:25.551Z,93426.19
2023-10-23T10:01:56.031Z,93416.84
2023-10-23T10:04:30.747Z,93408.97
2023-10-23T10:07:08.710Z,93413.97
2023-10-23T10:09:36.154Z,93423.22
2023-10-23T10:12:04.801Z,93404.47
2023-10-23T10:14:32.602Z,93413.03
2023-10-23T10:17:00.936Z,93415.66
2023-10-23T10:19:28.366Z,93438.59
2023-10-23T10:22:11.507Z,93411.31
2023-10-23T10:24:39.220Z,93412.44
2023-10-23T10:27:06.141Z,93423.72
2023-10-23T10:29:32.973Z,93422.91
2023-10-23T10:32:11.272Z,93415.09
2023-10-23T10:34:55.633Z,93391.34
2023-10-23T10:37:30.972Z,93400.97
2023-10-23T10:39:57.593Z,93398.66
2023-10-23T10:42:26.104Z,93396.28
2023-10-23T10:44:53.627Z,93361.44
2023-10-23T10:47:21.131Z,93379.63
2023-10-23T10:49:48.718Z,93354.13
2023-10-23T10:52:39.621Z,93352.13
2023-10-23T10:55:10.899Z,93333.91
2023-10-23T10:57:43.137Z,93340.00
2023-10-23T11:00:14.045Z,93342.81
2023-10-23T11:02:41.009Z,93340.72
2023-10-23T11:05:12.216Z,93342.13
2023-10-23T11:07:39.136Z,93343.59
2023-10-23T11:10:06.307Z,93368.31
2023-10-23T11:12:33.400Z,93344.69
2023-10-23T11:15:01.993Z,93340.19
2023-10-23T11:17:29.901Z,93335.56
2023-10-23T11:19:57.146Z,93336.81
2023-10-23T11:22:25.076Z,93334.81
2023-10-23T11:24:51.744Z,93342.25
2023-10-23T11:27:18.293Z,93337.22
2023-10-23T11:29:46.712Z,93338.25
2023-10-23T11:32:14.840Z,93334.94
2023-10-23T11:34:41.905Z,93320.06
2023-10-23T11:37:10.156Z,93329.69
2023-10-23T11:39:38.596Z,93330.34
2023-10-23T11:42:06.348Z,93337.81
2023-10-23T11:44:37.142Z,93317.53
2023-10-23T11:47:08.837Z,93339.03
2023-10-23T11:49:35.765Z,93330.34
2023-10-23T11:52:03.785Z,93334.94
2023-10-23T11:54:30.813Z,93333.91
2023-10-23T11:56:59.456Z,93331.25
2023-10-23T11:59:26.968Z,93313.63
2023-10-23T12:01:57.816Z,93309.66
2023-10-23T12:04:24.598Z,93309.66
2023-10-23T12:06:51.375Z,93305.16
2023-10-23T12:09:18.084Z,93273.22
2023-10-23T12:11:44.537Z,93295.50
2023-10-23T12:14:11.009Z,93288.06
2023-10-23T12:16:37.690Z,93276.59
2023-10-23T12:19:05.610Z,93267.13
2023-10-23T12:21:33.011Z,93268.75
2023-10-23T12:23:59.495Z,93272.94
2023-10-23T12:26:26.768Z,93265.41
2023-10-23T12:28:53.274Z,93270.25
2023-10-23T12:31:23.934Z,93267.97
2023-10-23T12:33:52.185Z,93277.97
2023-10-23T12:36:19.011Z,93264.38
2023-10-23T12:38:45.487Z,93253.09
2023-10-23T12:41:12.612Z,93231.78
2023-10-23T12:43:39.155Z,93228.06
2023-10-23T12:46:05.753Z,93225.97
2023-10-23T12:48:32.277Z,93219.66
2023-10-23T12:50:59.050Z,93219.16
2023-10-23T12:53:25.751Z,93225.06
2023-10-23T12:55:52.424Z,93201.28
2023-10-23T12:58:18.902Z,93200.75
2023-10-23T13:00:46.544Z,93187.06
2023-10-23T13:03:13.109Z,93192.78
2023-10-23T13:05:39.915Z,93181.78
2023-10-23T13:08:06.377Z,93186.44
2023-10-23T13:10:33.092Z,93178.78
2023-10-23T13:13:01.632Z,93181.69
2023-10-23T13:15:28.363Z,93193.88
2023-10-23T13:17:57.006Z,93184.41
2023-10-23T13:21:28.108Z,93180.16
2023-10-23T13:23:10.463Z,93180.19
2023-10-23T13:25:38.648Z,93165.94
2023-10-23T13:28:06.103Z,93163.81
2023-10-23T13:30:32.897Z,93172.25
2023-10-23T13:33:00.129Z,93157.50
2023-10-23T13:35:26.672Z,93170.22
2023-10-23T13:37:53.124Z,93158.06
2023-10-23T13:40:19.685Z,93152.78
2023-10-23T13:42:47.244Z,93155.47
2023-10-23T13:45:15.842Z,93154.94
2023-10-23T13:47:43.959Z,93145.97
2023-10-23T13:50:11.517Z,93129.59
2023-10-23T13:52:37.991Z,93137.53
2023-10-23T13:55:04.929Z,93121.66
2023-10-23T13:57:31.400Z,93133.31
2023-10-23T13:59:57.820Z,93138.59
2023-10-23T14:02:24.402Z,93123.78
2023-10-23T14:04:51.088Z,93125.38
2023-10-23T14:07:17.683Z,93122.19
2023-10-23T14:09:47.136Z,93113.97
2023-10-23T14:12:17.129Z,93115.59
2023-10-23T14:14:43.706Z,93111.59
2023-10-23T14:17:10.533Z,93103.13
2023-10-23T14:19:46.364Z,93091.50
2023-10-23T14:22:14.980Z,93105.25
2023-10-23T14:24:41.803Z,93099.94
2023-10-23T14:27:08.415Z,93097.31
2023-10-23T14:29:35.662Z,93094.69
2023-10-23T14:32:04.279Z,93093.63
2023-10-23T14:34:30.865Z,93085.69
2023-10-23T14:36:57.431Z,93086.22
2023-10-23T14:39:28.174Z,93077.50
2023-10-23T14:41:54.877Z,93076.97
2023-10-23T14:44:21.757Z,93083.59
2023-10-23T14:46:51.927Z,93074.06
2023-10-23T14:49:18.715Z,93063.75
2023-10-23T14:51:45.230Z,93060.06
2023-10-23T14:54:11.796Z,93057.66
2023-10-23T14:56:38.473Z,93061.06
2023-10-23T14:59:05.495Z,93058.66
2023-10-23T15:01:32.125Z,93058.66
2023-10-23T15:04:01.341Z,93055.44
2023-10-23T15:06:28.167Z,93065.50
2023-10-23T15:08:54.737Z,93058.59
2023-10-23T15:11:25.547Z,93060.19
2023-10-23T15:13:54.027Z,93062.25
2023-10-23T15:16:20.923Z,93048.50
2023-10-23T15:18:47.481Z,93043.19
2023-10-23T15:21:15.893Z,93047.13
2023-10-23T15:23:42.575Z,93055.34
2023-10-23T15:26:10.077Z,93025.44
2023-10-23T15:28:37.350Z,93042.03
2023-10-23T15:31:06.329Z,93049.91
2023-10-23T15:33:36.369Z,93055.72
2023-10-23T15:36:03.641Z,93048.22
2023-10-23T15:38:31.013Z,93043.44
2023-10-23T15:41:09.097Z,93037.66
2023-10-23T15:43:37.218Z,93024.59
2023-10-23T15:46:04.374Z,93013.78
2023-10-23T15:48:31.405Z,93035.97
2023-10-23T15:50:59.626Z,93016.84
2023-10-23T15:53:31.095Z,93014.66
2023-10-23T15:55:58.047Z,93022.50
2023-10-23T15:58:25.172Z,93017.16
2023-10-23T16:00:53.147Z,93028.72
2023-10-23T16:03:19.961Z,93021.25
2023-10-23T16:05:46.524Z,93022.25
2023-10-23T16:08:13.092Z,93011.56
2023-10-23T16:10:51.069Z,93021.59
2023-10-23T16:13:19.295Z,93022.28
2023-10-23T16:15:47.109Z,93020.97
2023-10-23T16:18:16.074Z,93021.75
2023-10-23T16:20:45.441Z,93000.97
2023-10-23T16:23:12.367Z,93020.31
2023-10-23T16:25:43.439Z,93029.25
2023-10-23T16:28:11.052Z,93032.31
2023-10-23T16:30:39.191Z,93016.75
2023-10-23T16:33:05.873Z,93011.84
2023-10-23T16:35:35.165Z,92999.25
2023-10-23T16:38:01.753Z,93016.00
2023-10-23T16:40:28.327Z,93002.63
2023-10-23T16:42:54.863Z,93014.41
2023-10-23T16:45:21.873Z,93019.97
2023-10-23T16:47:48.406Z,93010.19
2023-10-23T16:50:14.972Z,93019.50
2023-10-23T16:52:45.830Z,93022.84
2023-10-23T16:55:12.461Z,93011.06
2023-10-23T16:57:38.968Z,93010.75
2023-10-23T17:00:06.541Z,93016.78
2023-10-23T17:02:33.473Z,93010.22
2023-10-23T17:05:00.116Z,93006.50
2023-10-23T17:07:26.734Z,93011.56
2023-10-23T17:09:53.395Z,93007.72
2023-10-23T17:12:19.905Z,93015.47
2023-10-23T17:14:47.470Z,92997.94
2023-10-23T17:17:13.919Z,93011.31
2023-10-23T17:19:42.460Z,93009.59
2023-10-23T17:22:09.456Z,93004.94
2023-10-23T17:24:49.919Z,92993.44
2023-10-23T17:27:16.393Z,92997.56
2023-10-23T17:29:43.765Z,92991.31
2023-10-23T17:32:10.679Z,92954.22
2023-10-23T17:34:38.502Z,93011.78
2023-10-23T17:37:07.331Z,92987.00
2023-10-23T17:39:33.830Z,92998.34
2023-10-23T17:42:01.032Z,92990.50
2023-10-23T17:44:27.526Z,92989.22
2023-10-23T17:46:54.699Z,92977.38
2023-10-23T17:49:23.148Z,92992.75
2023-10-23T17:51:50.673Z,92984.34
2023-10-23T17:54:17.234Z,92987.03
2023-10-23T17:56:43.729Z,92962.91
2023-10-23T17:59:10.282Z,92929.44
2023-10-23T18:01:36.996Z,92956.97
2023-10-23T18:04:04.085Z,92961.50
2023-10-23T18:06:31.809Z,92986.28
2023-10-23T18:08:59.100Z,92964.44
2023-10-23T18:11:25.997Z,92979.44
2023-10-23T18:13:53.426Z,92944.75
2023-10-23T18:16:20.053Z,92973.75
2023-10-23T18:18:46.606Z,92951.44
2023-10-23T18:21:13.059Z,92933.00
2023-10-23T18:23:39.566Z,92944.88
2023-10-23T18:26:06.135Z,92959.97
2023-10-23T18:28:32.904Z,92958.34
2023-10-23T18:31:01.526Z,92963.50
2023-10-23T18:33:28.042Z,92964.09
2023-10-23T18:36:01.351Z,92967.72
2023-10-23T18:38:28.698Z,92973.63
2023-10-23T18:40:56.570Z,92946.19
2023-10-23T18:43:28.263Z,92950.09
2023-10-23T18:45:56.295Z,92959.81
2023-10-23T18:48:23.155Z,92960.72
2023-10-23T18:50:59.208Z,92960.44
2023-10-23T18:53:26.756Z,92965.09
2023-10-23T18:55:54.539Z,92974.25
2023-10-23T18:58:21.195Z,92973.53
2023-10-23T19:00:47.714Z,92973.94
2023-10-23T19:03:16.343Z,92959.00
2023-10-23T19:05:43.613Z,92983.13
2023-10-23T19:08:11.201Z,92949.53
2023-10-23T19:10:41.071Z,92985.56
2023-10-23T19:13:08.810Z,92962.09
2023-10-23T19:15:35.745Z,92968.19
2023-10-23T19:18:02.445Z,92942.66
2023-10-23T19:20:29.424Z,92976.59
2023-10-23T19:22:55.911Z,92979.78
2023-10-23T19:25:22.860Z,92977.59
2023-10-23T19:27:50.073Z,92981.53
2023-10-23T19:30:16.869Z,92978.94
2023-10-23T19:32:43.763Z,92990.78
2023-10-23T19:35:12.654Z,92984.88
2023-10-23T19:37:41.355Z,92983.56
2023-10-23T19:40:08.553Z,92981.09
2023-10-23T19:42:40.904Z,92991.97
2023-10-23T19:45:09.222Z,92970.00
2023-10-23T19:47:36.639Z,92969.47
2023-10-23T19:50:04.848Z,92989.91
2023-10-23T19:52:35.372Z,92973.72
2023-10-23T19:55:06.110Z,92972.53
2023-10-23T19:57:51.847Z,92974.84
2023-10-23T20:00:18.591Z,92995.75
2023-10-23T20:02:45.095Z,92989.81
2023-10-23T20:05:11.696Z,92992.72
2023-10-23T20:07:38.410Z,92991.09
2023-10-23T20:10:06.375Z,92993.84
2023-10-23T20:12:33.009Z,92995.91
2023-10-23T20:14:59.459Z,92999.16
2023-10-23T20:17:26.017Z,93007.63
2023-10-23T20:19:52.916Z,92982.34
2023-10-23T20:22:19.409Z,93004.72
2023-10-23T20:24:46.214Z,92998.06
2023-10-23T20:27:12.679Z,93012.13
2023-10-23T20:29:39.470Z,93018.06
2023-10-23T20:32:06.403Z,93021.72
2023-10-23T20:34:32.984Z,93022.44
2023-10-23T20:36:59.438Z,93036.06
2023-10-23T20:39:26.061Z,93026.94
2023-10-23T20:41:52.500Z,93017.06
2023-10-23T20:44:18.931Z,93030.84
2023-10-23T20:46:45.385Z,93024.41
2023-10-23T20:49:11.916Z,93033.66
2023-10-23T20:51:38.753Z,93050.88
2023-10-23T20:54:05.784Z,93012.13
2023-10-23T20:56:32.211Z,93044.78
2023-10-23T20:59:00.703Z,93034.34
2023-10-23T21:01:28.573Z,93023.28
2023-10-23T21:03:55.641Z,93026.13
2023-10-23T21:06:22.764Z,93011.50
2023-10-23T21:08:49.240Z,93010.34
2023-10-23T21:11:16.537Z,93036.88
2023-10-23T21:13:57.322Z,93028.50
2023-10-23T21:16:24.583Z,93021.50
2023-10-23T21:18:51.350Z,93033.91
2023-10-23T21:21:17.779Z,93022.22
2023-10-23T21:23:44.231Z,93017.22
2023-10-23T21:26:10.704Z,93009.16
2023-10-23T21:28:37.366Z,93002.25
2023-10-23T21:31:04.930Z,93016.69
2023-10-23T21:33:31.702Z,93007.06
2023-10-23T21:35:58.157Z,93017.22
2023-10-23T21:38:24.650Z,93008.88
2023-10-23T21:40:51.111Z,93008.94
2023-10-23T21:43:18.161Z,93012.00
2023-10-23T21:45:44.665Z,93002.94
2023-10-23T21:48:11.935Z,93006.97
2023-10-23T21:50:43.283Z,93004.72
2023-10-23T21:53:11.172Z,93014.47
2023-10-23T21:55:38.947Z,93006.63
2023-10-23T21:58:05.764Z,93019.91
2023-10-23T22:00:32.806Z,93027.50
2023-10-23T22:03:01.774Z,93032.16
2023-10-23T22:05:29.327Z,93022.22
2023-10-23T22:07:56.691Z,93029.53
2023-10-23T22:10:27.216Z,93011.13
2023-10-23T22:12:55.216Z,93019.69
2023-10-23T22:15:22.259Z,93037.38
2023-10-23T22:17:48.955Z,93034.84
2023-10-23T22:20:15.502Z,93029.22
2023-10-23T22:22:41.961Z,93045.50
2023-10-23T22:25:09.519Z,93059.47
2023-10-23T22:27:36.029Z,93046.22
2023-10-23T22:30:08.220Z,93056.84
2023-10-23T22:32:35.491Z,93044.19
2023-10-23T22:35:05.016Z,93052.97
2023-10-23T22:38:00.452Z,93053.75
2023-10-23T22:40:19.289Z,93064.63
2023-10-23T22:42:45.953Z,93080.31
2023-10-23T22:45:12.902Z,93093.22
2023-10-23T22:47:39.405Z,93097.56
2023-10-23T22:50:06.726Z,93105.69
2023-10-23T22:52:33.541Z,93111.69
2023-10-23T22:55:00.252Z,93132.34
2023-10-23T22:57:27.619Z,93131.34
2023-10-23T22:59:54.763Z,93141.84
2023-10-23T23:02:21.680Z,93133.75
2023-10-23T23:04:48.520Z,93124.31
2023-10-23T23:07:15.361Z,93143.19
2023-10-23T23:09:42.161Z,93119.59
2023-10-23T23:12:09.319Z,92946.97
2023-10-23T23:14:36.000Z,93107.63
2023-10-23T23:17:04.282Z,93135.09
2023-10-23T23:19:32.077Z,93132.09
2023-10-23T23:22:08.968Z,93106.22
2023-10-23T23:24:35.966Z,93075.88
2023-10-23T23:27:02.524Z,93100.66
2023-10-23T23:29:29.002Z,93101.84
2023-10-23T23:31:55.697Z,93108.00
2023-10-23T23:34:22.329Z,93118.66
2023-10-23T23:36:48.780Z,93116.44
2023-10-23T23:39:16.725Z,93119.53
2023-10-23T23:41:43.557Z,93126.44
2023-10-23T23:44:10.403Z,93132.81
2023-10-23T23:46:36.919Z,93118.56
2023-10-23T23:49:04.235Z,93119.09
2023-10-23T23:51:30.717Z,93136.03
2023-10-23T23:53:57.190Z,93130.03
2023-10-23T23:56:24.010Z,93112.47
2023-10-23T23:58:50.468Z,93112.88
